AMAT2: Canadian River Nr Amarillo, TX

                                SHEF ID:       AMAT2     Canadian Rv nr Amarillo, TX
STATION TYPE:
Regulating: Stage = 13.00, Flow = 11996

PRECIP STAGE RIV-FLOW WTR-TEMP CONDUCT BAT-LOAD
in ft cfs F umho/cm volt
Ccp-Rev Ccp-Rev Ccp-Rev Ccp-Rev Ccp-Rev Ccp-Rev
(America/Chicago)
07/22 00:00 ---- 3.61 794 82.18 1 12.62
07/22 01:00 ---- 3.64 807 81.61 1 12.61
07/22 02:00 ---- 3.68 825 81.05 1 12.60
07/22 03:00 ---- 3.71 838 80.53 1 12.59
07/22 04:00 ---- 3.71 838 80.04 1 12.57
07/22 05:00 ---- 3.71 838 79.74 1 12.56
07/22 06:00 ---- 3.74 851 79.54 1 12.55
07/22 07:00 ---- 3.76 860 79.32 1 12.60
07/22 08:00 ---- 3.78 869 79.16 1 12.84
07/22 09:00 ---- 3.79 873 79.18 1 13.10
07/22 10:00 ---- 3.80 878 79.41 1 13.62
07/22 11:00 ---- 3.82 887 80.19 1 13.61
07/22 12:00 ---- 3.83 891 81.00 1 13.59
07/22 13:00 ---- 3.84 896 82.27 1 13.55
07/22 14:00 ---- 3.84 896 83.57 1 13.53
07/22 15:00 ---- 3.84 896 84.47 1 13.49
07/22 16:00 ---- 3.85 900 85.26 1 13.39
07/22 17:00 ---- 3.83 891 85.53 1 13.23
07/22 18:00 ---- 3.83 891 85.17 1 13.13
07/22 19:00 ---- 3.79 873 84.61 1 12.97
07/22 20:00 ---- 3.68 825 83.98 1 12.76
07/22 21:00 ---- 3.49 744 83.14 1 12.63
07/22 22:00 ---- 3.21 632 82.51 1 12.62
07/22 23:00 ---- 2.99 543 82.02 1 12.62
Data processed at Wed 23Jul2025 04:15 GMT

Parsing this webpage?

Checkout our new Data API! CWMSDataAPI (CDA)

Timeseries IDs (TSIDs)

TSIDs used from left to right in the data table
AMAR.Precip-Inc.Total.1Hour.1Hour.Ccp-Rev
AMAR.Stage.Inst.1Hour.0.Ccp-Rev
AMAR.Flow.Inst.1Hour.0.Ccp-Rev
AMAR.Temp-Water.Inst.1Hour.0.Ccp-Rev
AMAR.Cond-Water.Inst.1Hour.0.Ccp-Rev
AMAR.Volt-Battery Load.Inst.1Hour.0.Ccp-Rev

                            

All information presented herein is the property of the government of the United States of America and may be revised or deleted at any time without prior notice. Dissemination of this information without the expressed written consent of the Public Affairs Office, Tulsa District U.S. Army Corps of Engineers is strictly prohibited. These data are gathered electronically and, as presented, have NOT undergone any form of quality control. These data are NOT guaranteed to be valid or correct.